createdAt,value
2019-02-21T00:01:34.950Z,5.30
2019-02-21T00:04:04.312Z,5.20
2019-02-21T00:06:33.506Z,5.20
2019-02-21T00:09:03.453Z,5.10
2019-02-21T00:11:33.248Z,5.00
2019-02-21T00:14:02.401Z,4.90
2019-02-21T00:16:32.819Z,4.80
2019-02-21T00:19:01.993Z,4.70
2019-02-21T00:21:31.172Z,4.60
2019-02-21T00:24:00.347Z,4.50
2019-02-21T00:26:29.535Z,4.40
2019-02-21T00:28:58.717Z,4.30
2019-02-21T00:31:27.889Z,4.30
2019-02-21T00:33:57.080Z,4.20
2019-02-21T00:36:27.309Z,4.20
2019-02-21T00:38:56.494Z,4.20
2019-02-21T00:41:25.664Z,4.20
2019-02-21T00:43:54.918Z,4.20
2019-02-21T00:46:24.100Z,4.20
2019-02-21T00:48:53.280Z,4.20
2019-02-21T00:51:23.520Z,4.30
2019-02-21T00:53:52.715Z,4.30
2019-02-21T00:56:21.883Z,4.30
2019-02-21T00:58:51.065Z,4.30
2019-02-21T01:01:20.951Z,4.20
2019-02-21T01:03:50.641Z,4.20
2019-02-21T01:06:20.949Z,4.20
2019-02-21T01:08:50.124Z,4.20
2019-02-21T01:11:19.319Z,4.10
2019-02-21T01:13:48.492Z,4.00
2019-02-21T01:16:17.708Z,3.90
2019-02-21T01:18:46.885Z,3.90
2019-02-21T01:21:16.082Z,3.80
2019-02-21T01:23:45.489Z,3.80
2019-02-21T01:26:14.711Z,3.80
2019-02-21T01:28:43.872Z,3.80
2019-02-21T01:31:13.072Z,3.80
2019-02-21T01:33:42.273Z,3.80
2019-02-21T01:36:11.482Z,3.80
2019-02-21T01:38:40.781Z,3.80
2019-02-21T01:41:10.125Z,3.80
2019-02-21T01:43:39.352Z,3.80
2019-02-21T01:46:08.551Z,3.80
2019-02-21T01:48:38.119Z,3.80
2019-02-21T01:51:07.363Z,3.80
2019-02-21T01:53:36.533Z,3.70
2019-02-21T01:56:05.709Z,3.70
2019-02-21T01:58:35.245Z,3.70
2019-02-21T02:01:08.597Z,3.70
2019-02-21T02:03:35.468Z,3.70
2019-02-21T02:06:05.316Z,3.70
2019-02-21T02:08:34.669Z,3.70
2019-02-21T02:11:03.971Z,3.70
2019-02-21T02:13:33.250Z,3.70
2019-02-21T02:16:02.469Z,3.70
2019-02-21T02:18:31.633Z,3.60
2019-02-21T02:21:00.949Z,3.60
2019-02-21T02:23:31.301Z,3.60
2019-02-21T02:26:00.739Z,3.50
2019-02-21T02:28:29.922Z,3.60
2019-02-21T02:30:59.296Z,3.70
2019-02-21T02:33:28.618Z,3.80
2019-02-21T02:35:57.787Z,3.80
2019-02-21T02:38:27.107Z,3.90
2019-02-21T02:40:56.557Z,4.00
2019-02-21T02:43:25.731Z,4.00
2019-02-21T02:45:54.911Z,4.00
2019-02-21T02:48:24.144Z,3.90
2019-02-21T02:50:53.330Z,3.90
2019-02-21T02:53:22.520Z,3.90
2019-02-21T02:55:51.718Z,3.90
2019-02-21T02:58:21.957Z,3.90
2019-02-21T03:00:51.575Z,3.80
2019-02-21T03:03:20.747Z,3.80
2019-02-21T03:05:49.944Z,3.80
2019-02-21T03:08:19.115Z,3.80
2019-02-21T03:10:48.301Z,3.80
2019-02-21T03:13:17.777Z,3.90
2019-02-21T03:15:46.985Z,3.90
2019-02-21T03:18:16.169Z,3.90
2019-02-21T03:20:47.227Z,3.90
2019-02-21T03:23:16.424Z,3.90
2019-02-21T03:25:45.602Z,3.80
2019-02-21T03:28:14.809Z,3.80
2019-02-21T03:30:43.979Z,3.80
2019-02-21T03:33:13.413Z,3.70
2019-02-21T03:35:42.644Z,3.70
2019-02-21T03:38:11.835Z,3.70
2019-02-21T03:40:41.026Z,3.70
2019-02-21T03:43:10.231Z,3.70
2019-02-21T03:45:39.431Z,3.60
2019-02-21T03:48:08.737Z,3.50
2019-02-21T03:50:37.950Z,3.50
2019-02-21T03:53:07.122Z,3.40
2019-02-21T03:55:36.475Z,3.40
2019-02-21T03:58:05.654Z,3.30
2019-02-21T04:00:34.909Z,3.30
2019-02-21T04:03:04.425Z,3.30
2019-02-21T04:05:33.588Z,3.30
2019-02-21T04:08:03.037Z,3.30
2019-02-21T04:10:32.233Z,3.30
2019-02-21T04:13:01.391Z,3.30
2019-02-21T04:15:30.584Z,3.30
2019-02-21T04:17:59.740Z,3.30
2019-02-21T04:20:29.998Z,3.30
2019-02-21T04:23:00.187Z,3.30
2019-02-21T04:25:29.371Z,3.30
2019-02-21T04:27:58.553Z,3.20
2019-02-21T04:30:27.979Z,3.20
2019-02-21T04:32:57.843Z,3.10
2019-02-21T04:35:28.541Z,3.00
2019-02-21T04:37:57.726Z,2.90
2019-02-21T04:40:27.242Z,2.90
2019-02-21T04:42:56.421Z,2.90
2019-02-21T04:45:25.611Z,2.90
2019-02-21T04:47:54.777Z,2.80
2019-02-21T04:50:24.032Z,2.90
2019-02-21T04:52:53.201Z,2.90
2019-02-21T04:55:22.452Z,2.90
2019-02-21T04:57:51.652Z,2.90
2019-02-21T05:00:20.930Z,3.00
2019-02-21T05:02:50.228Z,3.00
2019-02-21T05:05:19.434Z,3.00
2019-02-21T05:07:48.648Z,3.10
2019-02-21T05:10:17.792Z,3.20
2019-02-21T05:12:47.000Z,3.20
2019-02-21T05:15:16.398Z,3.20
2019-02-21T05:17:45.679Z,3.20
2019-02-21T05:20:14.872Z,3.20
2019-02-21T05:22:44.330Z,3.20
2019-02-21T05:25:13.528Z,3.30
2019-02-21T05:27:44.380Z,3.30
2019-02-21T05:30:15.248Z,3.20
2019-02-21T05:32:48.755Z,3.20
2019-02-21T05:35:19.638Z,3.20
2019-02-21T05:37:53.410Z,3.10
2019-02-21T05:40:28.709Z,3.10
2019-02-21T05:43:05.790Z,3.10
2019-02-21T05:45:36.585Z,3.10
2019-02-21T05:48:10.347Z,3.10
2019-02-21T05:50:41.178Z,3.10
2019-02-21T05:53:27.004Z,3.10
2019-02-21T05:55:57.839Z,3.10
2019-02-21T05:58:35.337Z,3.20
2019-02-21T06:01:18.486Z,3.20
2019-02-21T06:03:58.294Z,3.20
2019-02-21T06:06:35.199Z,3.30
2019-02-21T06:09:10.017Z,3.30
2019-02-21T06:11:46.842Z,3.30
2019-02-21T06:14:33.930Z,3.40
2019-02-21T06:17:21.382Z,3.40
2019-02-21T06:19:53.277Z,3.50
2019-02-21T06:22:26.833Z,3.50
2019-02-21T06:25:04.663Z,3.50
2019-02-21T06:27:44.516Z,3.50
2019-02-21T06:30:16.401Z,3.50
2019-02-21T06:32:45.592Z,3.40
2019-02-21T06:35:14.774Z,3.40
2019-02-21T06:37:44.047Z,3.40
2019-02-21T06:40:13.243Z,3.40
2019-02-21T06:42:42.440Z,3.40
2019-02-21T06:45:11.614Z,3.50
2019-02-21T06:47:40.886Z,3.50
2019-02-21T06:50:11.146Z,3.60
2019-02-21T06:52:40.778Z,3.60
2019-02-21T06:55:10.284Z,3.70
2019-02-21T06:57:39.488Z,3.70
2019-02-21T07:00:08.753Z,3.80
2019-02-21T07:06:31.508Z,4.10
2019-02-21T07:08:54.313Z,4.30
2019-02-21T07:11:25.362Z,4.30
2019-02-21T07:13:54.778Z,4.50
2019-02-21T07:16:24.004Z,4.60
2019-02-21T07:18:53.236Z,4.70
2019-02-21T07:21:22.465Z,4.90
2019-02-21T07:23:51.669Z,5.10
2019-02-21T07:26:21.166Z,5.30
2019-02-21T07:28:50.401Z,5.60
2019-02-21T07:31:28.020Z,5.80
2019-02-21T07:33:50.573Z,6.00
2019-02-21T07:36:19.803Z,6.20
2019-02-21T07:38:49.366Z,6.30
2019-02-21T07:41:19.718Z,6.40
2019-02-21T07:43:48.959Z,6.50
2019-02-21T07:46:18.201Z,6.60
2019-02-21T07:48:47.625Z,6.60
2019-02-21T07:51:16.876Z,6.60
2019-02-21T07:53:46.684Z,6.50
2019-02-21T07:56:15.975Z,6.50
2019-02-21T07:58:45.194Z,6.50
2019-02-21T08:01:14.422Z,6.50
2019-02-21T08:03:47.293Z,6.50
2019-02-21T08:06:14.581Z,6.50
2019-02-21T08:08:44.979Z,6.60
2019-02-21T08:11:14.898Z,6.70
2019-02-21T08:13:44.148Z,6.80
2019-02-21T08:16:13.359Z,6.90
2019-02-21T08:18:42.606Z,7.00
2019-02-21T08:21:11.836Z,7.10
2019-02-21T08:23:49.958Z,7.20
2019-02-21T08:26:11.985Z,7.30
2019-02-21T08:28:41.231Z,7.40
2019-02-21T08:31:10.440Z,7.50
2019-02-21T08:33:47.109Z,7.60
2019-02-21T08:36:15.217Z,7.70
2019-02-21T08:38:44.484Z,7.80
2019-02-21T08:41:14.693Z,7.80
2019-02-21T08:43:45.169Z,7.90
2019-02-21T08:46:14.949Z,7.90
2019-02-21T08:48:44.224Z,8.00
2019-02-21T08:51:13.456Z,8.10
2019-02-21T08:53:42.698Z,8.20
2019-02-21T08:56:11.910Z,8.30
2019-02-21T08:58:41.126Z,8.40
2019-02-21T09:01:10.422Z,8.60
2019-02-21T09:03:39.650Z,8.70
2019-02-21T09:06:09.156Z,8.90
2019-02-21T09:08:38.456Z,8.90
2019-02-21T09:11:07.708Z,8.90
2019-02-21T09:13:36.914Z,8.70
2019-02-21T09:16:06.212Z,8.30
2019-02-21T09:18:35.424Z,8.00
2019-02-21T09:21:04.741Z,7.70
2019-02-21T09:23:33.952Z,7.40
2019-02-21T09:26:03.233Z,7.20
2019-02-21T09:28:32.469Z,7.10
2019-02-21T09:31:02.079Z,7.20
2019-02-21T09:33:31.374Z,7.30
2019-02-21T09:36:00.597Z,7.30
2019-02-21T09:38:29.865Z,7.40
2019-02-21T09:40:59.092Z,7.60
2019-02-21T09:43:28.324Z,7.80
2019-02-21T09:45:57.904Z,8.10
2019-02-21T09:48:27.136Z,8.30
2019-02-21T09:50:56.433Z,8.50
2019-02-21T09:53:26.731Z,8.70
2019-02-21T09:55:55.984Z,8.80
2019-02-21T09:58:25.282Z,8.90
2019-02-21T10:00:54.487Z,9.00
2019-02-21T10:03:23.736Z,9.10
2019-02-21T10:05:53.170Z,9.10
2019-02-21T10:08:22.395Z,9.10
2019-02-21T10:10:53.288Z,9.10
2019-02-21T10:13:22.492Z,9.10
2019-02-21T10:15:52.808Z,9.10
2019-02-21T10:18:22.015Z,9.20
2019-02-21T10:20:51.258Z,9.30
2019-02-21T10:23:20.504Z,9.40
2019-02-21T10:25:49.748Z,9.50
2019-02-21T10:28:19.288Z,9.80
2019-02-21T10:30:48.509Z,9.90
2019-02-21T10:33:17.744Z,10.00
2019-02-21T10:35:46.964Z,10.20
2019-02-21T10:38:16.207Z,10.30
2019-02-21T10:40:45.425Z,10.20
2019-02-21T10:43:14.693Z,10.20
2019-02-21T10:45:47.712Z,10.10
2019-02-21T10:48:14.861Z,9.90
2019-02-21T10:50:44.344Z,9.80
2019-02-21T10:53:13.573Z,9.80
2019-02-21T10:55:43.156Z,9.90
2019-02-21T10:58:12.387Z,10.10
2019-02-21T11:00:41.612Z,10.30
2019-02-21T11:03:11.030Z,10.50
2019-02-21T11:05:40.342Z,10.70
2019-02-21T11:08:09.559Z,10.90
2019-02-21T11:10:38.804Z,11.10
2019-02-21T11:13:08.363Z,11.40
2019-02-21T11:15:37.588Z,11.70
2019-02-21T11:18:08.085Z,11.80
2019-02-21T11:20:37.327Z,11.50
2019-02-21T11:23:06.766Z,11.40
2019-02-21T11:25:36.429Z,11.40
2019-02-21T11:28:05.652Z,11.50
2019-02-21T11:30:34.880Z,11.50
2019-02-21T11:33:04.188Z,11.70
2019-02-21T11:35:33.401Z,11.80
2019-02-21T11:38:02.653Z,12.00
2019-02-21T11:40:31.869Z,12.10
2019-02-21T11:43:02.542Z,12.20
2019-02-21T11:45:32.763Z,12.20
2019-02-21T11:48:02.012Z,12.20
2019-02-21T11:50:31.229Z,12.20
2019-02-21T11:53:00.470Z,12.20
2019-02-21T11:55:30.180Z,12.10
2019-02-21T11:57:59.420Z,11.80
2019-02-21T12:00:31.907Z,11.70
2019-02-21T12:03:01.303Z,11.60
2019-02-21T12:05:31.930Z,11.60
2019-02-21T12:08:01.540Z,11.60
2019-02-21T12:10:30.780Z,11.70
2019-02-21T12:13:00.025Z,11.90
2019-02-21T12:15:30.239Z,12.30
2019-02-21T12:17:59.484Z,12.60
2019-02-21T12:20:28.714Z,12.90
2019-02-21T12:22:57.981Z,12.90
2019-02-21T12:25:27.209Z,12.90
2019-02-21T12:27:56.469Z,12.90
2019-02-21T12:30:25.680Z,12.90
2019-02-21T12:32:54.924Z,12.90
2019-02-21T12:35:29.729Z,12.90
2019-02-21T12:37:55.108Z,13.00
2019-02-21T12:40:24.367Z,13.20
2019-02-21T12:42:53.615Z,13.30
2019-02-21T12:45:24.666Z,13.50
2019-02-21T12:47:54.887Z,13.60
2019-02-21T12:50:24.120Z,13.70
2019-02-21T12:52:53.367Z,13.60
2019-02-21T12:55:29.185Z,13.60
2019-02-21T12:57:53.890Z,13.50
2019-02-21T13:00:23.194Z,13.40
2019-02-21T13:02:52.421Z,13.30
2019-02-21T13:05:21.662Z,13.10
2019-02-21T13:08:11.394Z,12.90
2019-02-21T13:10:41.744Z,12.80
2019-02-21T13:13:10.988Z,12.80
2019-02-21T13:15:40.318Z,12.80
2019-02-21T13:18:15.936Z,12.90
2019-02-21T13:20:40.491Z,13.10
2019-02-21T13:23:09.719Z,13.30
2019-02-21T13:25:38.952Z,13.50
2019-02-21T13:28:08.198Z,13.60
2019-02-21T13:30:37.420Z,13.60
2019-02-21T13:33:06.662Z,13.60
2019-02-21T13:35:35.877Z,13.70
2019-02-21T13:38:05.117Z,13.60
2019-02-21T13:40:36.012Z,13.60
2019-02-21T13:43:05.240Z,13.50
2019-02-21T13:45:34.527Z,13.50
2019-02-21T13:48:03.779Z,13.40
2019-02-21T13:50:33.068Z,13.40
2019-02-21T13:53:02.371Z,13.40
2019-02-21T13:55:31.620Z,13.40
2019-02-21T13:58:00.932Z,13.50
2019-02-21T14:00:30.157Z,13.60
2019-02-21T14:02:59.392Z,13.70
2019-02-21T14:05:28.638Z,13.80
2019-02-21T14:07:58.211Z,13.90
2019-02-21T14:10:27.438Z,14.10
2019-02-21T14:12:56.657Z,14.10
2019-02-21T14:15:27.846Z,14.10
2019-02-21T14:17:58.027Z,13.90
2019-02-21T14:20:27.285Z,13.80
2019-02-21T14:22:56.519Z,13.80
2019-02-21T14:25:28.248Z,13.70
2019-02-21T14:27:56.679Z,13.70
2019-02-21T14:30:26.052Z,13.60
2019-02-21T14:32:55.348Z,13.60
2019-02-21T14:35:24.591Z,13.50
2019-02-21T14:37:53.876Z,13.50
2019-02-21T14:40:23.097Z,13.50
2019-02-21T14:42:52.431Z,13.50
2019-02-21T14:45:24.394Z,13.50
2019-02-21T14:47:53.804Z,13.50
2019-02-21T14:50:23.075Z,13.50
2019-02-21T14:52:52.313Z,13.40
2019-02-21T14:55:21.571Z,13.40
2019-02-21T14:57:51.107Z,13.30
2019-02-21T15:00:25.156Z,13.30
2019-02-21T15:02:54.446Z,13.20
2019-02-21T15:05:23.680Z,13.20
2019-02-21T15:07:52.901Z,13.20
2019-02-21T15:10:22.264Z,13.20
2019-02-21T15:12:51.843Z,13.30
2019-02-21T15:15:27.896Z,13.40
2019-02-21T15:18:07.070Z,13.50
2019-02-21T15:20:36.316Z,13.70
2019-02-21T15:22:59.096Z,13.80
2019-02-21T15:25:28.329Z,13.90
2019-02-21T15:27:57.577Z,13.90
2019-02-21T15:30:26.821Z,13.90
2019-02-21T15:32:56.040Z,14.00
2019-02-21T15:35:25.344Z,13.90
2019-02-21T15:37:54.560Z,13.90
2019-02-21T15:40:23.801Z,13.90
2019-02-21T15:42:53.378Z,13.90
2019-02-21T15:45:27.565Z,13.90
2019-02-21T15:47:56.921Z,13.90
2019-02-21T15:50:26.215Z,13.80
2019-02-21T15:52:56.716Z,13.70
2019-02-21T15:55:25.935Z,13.60
2019-02-21T15:58:03.298Z,13.50
2019-02-21T16:00:26.140Z,13.40
2019-02-21T16:02:55.669Z,13.40
2019-02-21T16:05:24.904Z,13.30
2019-02-21T16:07:54.189Z,13.20
2019-02-21T16:10:27.547Z,13.20
2019-02-21T16:12:57.136Z,13.10
2019-02-21T16:15:39.130Z,13.10
2019-02-21T16:18:08.389Z,13.00
2019-02-21T16:20:37.608Z,12.90
2019-02-21T16:23:06.836Z,12.90
2019-02-21T16:25:37.050Z,12.80
2019-02-21T16:28:06.280Z,12.80
2019-02-21T16:30:35.555Z,12.80
2019-02-21T16:33:04.861Z,12.80
2019-02-21T16:35:34.091Z,12.80
2019-02-21T16:38:03.630Z,12.80
2019-02-21T16:40:32.939Z,12.90
2019-02-21T16:43:02.184Z,13.00
2019-02-21T16:45:43.115Z,13.00
2019-02-21T16:48:02.412Z,13.00
2019-02-21T16:50:31.724Z,13.10
2019-02-21T16:53:00.943Z,13.10
2019-02-21T16:55:30.178Z,13.10
2019-02-21T16:57:59.447Z,13.10
2019-02-21T17:00:38.927Z,13.10
2019-02-21T17:02:59.677Z,13.20
2019-02-21T17:05:29.152Z,13.20
2019-02-21T17:07:58.396Z,13.20
2019-02-21T17:10:27.628Z,13.20
2019-02-21T17:12:58.508Z,13.20
2019-02-21T17:15:27.727Z,13.20
2019-02-21T17:17:56.972Z,13.20
2019-02-21T17:20:26.215Z,13.20
2019-02-21T17:22:55.451Z,13.10
2019-02-21T17:25:24.677Z,13.00
2019-02-21T17:27:53.895Z,13.00
2019-02-21T17:30:23.152Z,12.90
2019-02-21T17:32:52.489Z,12.90
2019-02-21T17:35:22.861Z,12.90
2019-02-21T17:37:52.079Z,12.90
2019-02-21T17:40:22.661Z,12.90
2019-02-21T17:42:51.876Z,12.90
2019-02-21T17:45:21.122Z,12.90
2019-02-21T17:47:50.470Z,12.90
2019-02-21T17:50:20.233Z,12.90
2019-02-21T17:52:49.479Z,12.90
2019-02-21T17:55:18.978Z,12.80
2019-02-21T17:57:48.291Z,12.70
2019-02-21T18:00:23.574Z,12.60
2019-02-21T18:02:53.140Z,12.60
2019-02-21T18:05:22.415Z,12.50
2019-02-21T18:08:05.058Z,12.60
2019-02-21T18:10:37.581Z,12.60
2019-02-21T18:13:11.673Z,12.50
2019-02-21T18:15:43.419Z,12.60
2019-02-21T18:18:15.432Z,12.60
2019-02-21T18:20:45.205Z,12.50
2019-02-21T18:23:14.425Z,12.50
2019-02-21T18:25:52.957Z,12.50
2019-02-21T18:28:22.564Z,12.50
2019-02-21T18:30:54.677Z,12.50
2019-02-21T18:33:23.926Z,12.50
2019-02-21T18:35:53.226Z,12.40
2019-02-21T18:38:22.472Z,12.40
2019-02-21T18:40:51.726Z,12.40
2019-02-21T18:43:20.957Z,12.40
2019-02-21T18:45:50.294Z,12.40
2019-02-21T18:48:19.825Z,12.30
2019-02-21T18:50:49.151Z,12.30
2019-02-21T18:53:18.403Z,12.20
2019-02-21T18:55:47.786Z,12.10
2019-02-21T18:58:16.999Z,12.10
2019-02-21T19:00:46.314Z,12.10
2019-02-21T19:03:15.835Z,12.00
2019-02-21T19:05:45.437Z,11.90
2019-02-21T19:08:14.954Z,11.90
2019-02-21T19:10:44.563Z,11.90
2019-02-21T19:13:13.789Z,11.80
2019-02-21T19:15:43.037Z,11.80
2019-02-21T19:18:12.263Z,11.80
2019-02-21T19:20:41.869Z,11.70
2019-02-21T19:23:11.111Z,11.70
2019-02-21T19:25:40.384Z,11.60
2019-02-21T19:28:09.613Z,11.40
2019-02-21T19:30:45.151Z,11.40
2019-02-21T19:33:14.735Z,11.20
2019-02-21T19:35:44.055Z,11.10
2019-02-21T19:38:13.317Z,11.00
2019-02-21T19:40:42.542Z,11.00
2019-02-21T19:43:11.871Z,11.00
2019-02-21T19:45:41.189Z,11.00
2019-02-21T19:48:10.457Z,11.00
2019-02-21T19:50:40.047Z,11.00
2019-02-21T19:53:09.667Z,11.00
2019-02-21T19:55:39.341Z,11.00
2019-02-21T19:58:08.857Z,11.10
2019-02-21T20:00:39.874Z,11.10
2019-02-21T20:03:09.284Z,11.10
2019-02-21T20:05:38.676Z,11.20
2019-02-21T20:08:09.138Z,11.20
2019-02-21T20:10:38.986Z,11.30
2019-02-21T20:13:09.800Z,11.30
2019-02-21T20:15:39.139Z,11.30
2019-02-21T20:18:08.410Z,11.30
2019-02-21T20:20:37.667Z,11.30
2019-02-21T20:23:06.888Z,11.30
2019-02-21T20:25:36.252Z,11.30
2019-02-21T20:28:05.553Z,11.40
2019-02-21T20:30:34.867Z,11.40
2019-02-21T20:33:04.152Z,11.40
2019-02-21T20:35:33.453Z,11.40
2019-02-21T20:38:02.762Z,11.50
2019-02-21T20:40:31.988Z,11.50
2019-02-21T20:43:01.374Z,11.50
2019-02-21T20:45:30.692Z,11.50
2019-02-21T20:47:59.954Z,11.40
2019-02-21T20:50:29.279Z,11.40
2019-02-21T20:52:58.707Z,11.40
2019-02-21T20:55:28.064Z,11.50
2019-02-21T20:57:57.325Z,11.50
2019-02-21T21:00:26.639Z,11.50
2019-02-21T21:02:56.133Z,11.40
2019-02-21T21:05:25.539Z,11.30
2019-02-21T21:07:54.863Z,11.20
2019-02-21T21:10:24.104Z,11.20
2019-02-21T21:12:53.650Z,11.20
2019-02-21T21:15:22.880Z,11.30
2019-02-21T21:17:52.477Z,11.30
2019-02-21T21:20:21.732Z,11.40
2019-02-21T21:22:51.016Z,11.30
2019-02-21T21:25:20.233Z,11.30
2019-02-21T21:27:49.478Z,11.30
2019-02-21T21:30:19.281Z,11.30
2019-02-21T21:32:48.595Z,11.40
2019-02-21T21:35:18.079Z,11.40
2019-02-21T21:37:47.405Z,11.50
2019-02-21T21:40:17.961Z,11.50
2019-02-21T21:42:47.893Z,11.50
2019-02-21T21:45:18.155Z,11.60
2019-02-21T21:47:47.398Z,11.60
2019-02-21T21:50:18.842Z,11.50
2019-02-21T21:52:48.068Z,11.30
2019-02-21T21:55:17.401Z,11.30
2019-02-21T21:57:46.620Z,11.20
2019-02-21T22:00:21.192Z,11.20
2019-02-21T22:02:50.514Z,11.30
2019-02-21T22:05:20.023Z,11.20
2019-02-21T22:07:49.677Z,11.20
2019-02-21T22:10:19.576Z,11.10
2019-02-21T22:12:48.864Z,11.10
2019-02-21T22:15:25.764Z,11.10
2019-02-21T22:17:55.051Z,11.10
2019-02-21T22:20:24.283Z,11.10
2019-02-21T22:22:53.545Z,11.00
2019-02-21T22:25:23.400Z,11.00
2019-02-21T22:27:52.976Z,10.90
2019-02-21T22:30:22.188Z,10.90
2019-02-21T22:32:51.427Z,10.80
2019-02-21T22:35:20.640Z,10.70
2019-02-21T22:37:49.889Z,10.60
2019-02-21T22:40:20.394Z,10.60
2019-02-21T22:42:49.737Z,10.50
2019-02-21T22:45:18.967Z,10.50
2019-02-21T22:47:48.214Z,10.50
2019-02-21T22:50:19.114Z,10.50
2019-02-21T22:52:48.427Z,10.50
2019-02-21T22:55:17.708Z,10.50
2019-02-21T22:57:46.954Z,10.40
2019-02-21T23:00:42.145Z,10.40
2019-02-21T23:03:13.072Z,10.40
2019-02-21T23:06:05.301Z,10.40
2019-02-21T23:08:44.795Z,10.30
2019-02-21T23:11:14.109Z,10.30
2019-02-21T23:13:44.849Z,10.30
2019-02-21T23:16:14.438Z,10.30
2019-02-21T23:18:43.838Z,10.30
2019-02-21T23:21:13.056Z,10.30
2019-02-21T23:23:42.263Z,10.30
2019-02-21T23:26:11.777Z,10.20
2019-02-21T23:28:41.015Z,10.20
2019-02-21T23:31:10.308Z,10.20
2019-02-21T23:33:50.081Z,10.20
2019-02-21T23:36:19.361Z,10.20
2019-02-21T23:38:48.616Z,10.10
2019-02-21T23:41:17.858Z,10.10
2019-02-21T23:43:47.420Z,10.10
2019-02-21T23:46:17.859Z,10.10
2019-02-21T23:48:47.085Z,10.10
2019-02-21T23:51:16.325Z,10.10
2019-02-21T23:53:45.536Z,10.10
2019-02-21T23:56:14.780Z,10.10
2019-02-21T23:58:44.025Z,10.10
